sensor_id;sensor_type;location;lat;lon;timestamp;pressure;altitude;pressure_sealevel;temperature;humidity
34073;BME280;20346;52.702;16.886;2022-07-05T00:01:14;101172.27;;;16.05;60.67
34073;BME280;20346;52.702;16.886;2022-07-05T00:03:41;101172.75;;;16.03;60.77
34073;BME280;20346;52.702;16.886;2022-07-05T00:06:07;101167.27;;;15.97;60.84
34073;BME280;20346;52.702;16.886;2022-07-05T00:08:45;101168.98;;;15.98;60.96
34073;BME280;20346;52.702;16.886;2022-07-05T00:11:11;101164.30;;;15.95;61.00
34073;BME280;20346;52.702;16.886;2022-07-05T00:13:37;101162.59;;;15.94;61.07
34073;BME280;20346;52.702;16.886;2022-07-05T00:16:03;101163.80;;;15.97;61.12
34073;BME280;20346;52.702;16.886;2022-07-05T00:18:30;101154.81;;;15.92;61.15
34073;BME280;20346;52.702;16.886;2022-07-05T00:20:56;101154.90;;;15.89;61.21
34073;BME280;20346;52.702;16.886;2022-07-05T00:23:22;101154.67;;;15.82;61.26
34073;BME280;20346;52.702;16.886;2022-07-05T00:25:48;101153.55;;;15.76;61.36
34073;BME280;20346;52.702;16.886;2022-07-05T00:28:14;101158.39;;;15.73;61.49
34073;BME280;20346;52.702;16.886;2022-07-05T00:30:41;101167.03;;;15.75;61.53
34073;BME280;20346;52.702;16.886;2022-07-05T00:33:07;101162.75;;;15.73;61.54
34073;BME280;20346;52.702;16.886;2022-07-05T00:35:33;101161.22;;;15.66;61.57
34073;BME280;20346;52.702;16.886;2022-07-05T00:37:59;101160.56;;;15.59;61.59
34073;BME280;20346;52.702;16.886;2022-07-05T00:40:26;101163.72;;;15.54;61.67
34073;BME280;20346;52.702;16.886;2022-07-05T00:42:52;101167.39;;;15.47;61.52
34073;BME280;20346;52.702;16.886;2022-07-05T00:45:18;101163.68;;;15.39;61.76
34073;BME280;20346;52.702;16.886;2022-07-05T00:47:44;101166.38;;;15.36;61.81
34073;BME280;20346;52.702;16.886;2022-07-05T00:50:29;101170.93;;;15.28;61.84
34073;BME280;20346;52.702;16.886;2022-07-05T00:52:57;101155.05;;;15.21;62.01
34073;BME280;20346;52.702;16.886;2022-07-05T00:55:23;101150.33;;;15.19;62.54
34073;BME280;20346;52.702;16.886;2022-07-05T00:58:00;101153.38;;;15.18;62.19
34073;BME280;20346;52.702;16.886;2022-07-05T01:00:27;101155.98;;;15.18;62.21
34073;BME280;20346;52.702;16.886;2022-07-05T01:02:53;101156.47;;;15.16;62.25
34073;BME280;20346;52.702;16.886;2022-07-05T01:05:19;101158.79;;;15.11;62.29
34073;BME280;20346;52.702;16.886;2022-07-05T01:07:45;101163.63;;;15.08;62.25
34073;BME280;20346;52.702;16.886;2022-07-05T01:10:11;101159.98;;;14.99;62.28
34073;BME280;20346;52.702;16.886;2022-07-05T01:12:39;101162.34;;;14.92;62.43
34073;BME280;20346;52.702;16.886;2022-07-05T01:15:06;101166.28;;;14.90;62.49
34073;BME280;20346;52.702;16.886;2022-07-05T01:17:35;101165.47;;;14.88;62.50
34073;BME280;20346;52.702;16.886;2022-07-05T01:20:06;101166.51;;;14.81;62.56
34073;BME280;20346;52.702;16.886;2022-07-05T01:22:50;101167.89;;;14.78;62.69
34073;BME280;20346;52.702;16.886;2022-07-05T01:25:21;101168.30;;;14.79;62.76
34073;BME280;20346;52.702;16.886;2022-07-05T01:27:48;101166.14;;;14.79;62.80
34073;BME280;20346;52.702;16.886;2022-07-05T01:30:15;101170.48;;;14.78;62.81
34073;BME280;20346;52.702;16.886;2022-07-05T01:32:41;101174.47;;;14.75;62.83
34073;BME280;20346;52.702;16.886;2022-07-05T01:35:09;101169.37;;;14.71;62.90
34073;BME280;20346;52.702;16.886;2022-07-05T01:37:37;101173.83;;;14.66;62.97
34073;BME280;20346;52.702;16.886;2022-07-05T01:40:04;101178.18;;;14.65;63.13
34073;BME280;20346;52.702;16.886;2022-07-05T01:42:31;101171.59;;;14.68;63.64
34073;BME280;20346;52.702;16.886;2022-07-05T01:45:03;101172.08;;;14.66;63.23
34073;BME280;20346;52.702;16.886;2022-07-05T01:47:38;101167.32;;;14.66;63.26
34073;BME280;20346;52.702;16.886;2022-07-05T01:50:09;101162.08;;;14.67;63.34
34073;BME280;20346;52.702;16.886;2022-07-05T01:52:43;101158.10;;;14.70;63.39
34073;BME280;20346;52.702;16.886;2022-07-05T01:55:09;101157.70;;;14.69;63.43
34073;BME280;20346;52.702;16.886;2022-07-05T01:57:35;101158.59;;;14.68;63.47
34073;BME280;20346;52.702;16.886;2022-07-05T02:00:02;101156.88;;;14.67;63.53
34073;BME280;20346;52.702;16.886;2022-07-05T02:02:28;101154.72;;;14.67;63.59
34073;BME280;20346;52.702;16.886;2022-07-05T02:04:54;101162.49;;;14.68;64.10
34073;BME280;20346;52.702;16.886;2022-07-05T02:07:20;101172.91;;;14.68;63.68
34073;BME280;20346;52.702;16.886;2022-07-05T02:09:46;101174.20;;;14.68;63.71
34073;BME280;20346;52.702;16.886;2022-07-05T02:12:12;101175.50;;;14.68;63.83
34073;BME280;20346;52.702;16.886;2022-07-05T02:14:38;101177.62;;;14.70;63.93
34073;BME280;20346;52.702;16.886;2022-07-05T02:17:04;101176.73;;;14.71;63.91
34073;BME280;20346;52.702;16.886;2022-07-05T02:19:30;101170.78;;;14.66;63.86
34073;BME280;20346;52.702;16.886;2022-07-05T02:21:56;101170.41;;;14.64;63.96
34073;BME280;20346;52.702;16.886;2022-07-05T02:24:22;101167.02;;;14.60;64.01
34073;BME280;20346;52.702;16.886;2022-07-05T02:26:55;101177.44;;;14.60;64.07
34073;BME280;20346;52.702;16.886;2022-07-05T02:29:21;101180.03;;;14.60;64.17
34073;BME280;20346;52.702;16.886;2022-07-05T02:31:47;101171.38;;;14.60;64.24
34073;BME280;20346;52.702;16.886;2022-07-05T02:34:15;101171.81;;;14.59;64.33
34073;BME280;20346;52.702;16.886;2022-07-05T02:36:41;101164.87;;;14.60;64.40
34073;BME280;20346;52.702;16.886;2022-07-05T02:39:07;101160.48;;;14.62;64.42
34073;BME280;20346;52.702;16.886;2022-07-05T02:41:33;101160.45;;;14.63;64.38
34073;BME280;20346;52.702;16.886;2022-07-05T02:43:59;101160.52;;;14.60;64.35
34073;BME280;20346;52.702;16.886;2022-07-05T02:46:25;101157.20;;;14.55;64.41
34073;BME280;20346;52.702;16.886;2022-07-05T02:48:51;101156.89;;;14.49;64.48
34073;BME280;20346;52.702;16.886;2022-07-05T02:51:18;101162.58;;;14.47;64.56
34073;BME280;20346;52.702;16.886;2022-07-05T02:53:44;101166.48;;;14.47;64.66
34073;BME280;20346;52.702;16.886;2022-07-05T02:56:10;101166.93;;;14.47;64.70
34073;BME280;20346;52.702;16.886;2022-07-05T02:58:37;101166.89;;;14.48;64.71
34073;BME280;20346;52.702;16.886;2022-07-05T03:01:03;101170.39;;;14.47;64.69
34073;BME280;20346;52.702;16.886;2022-07-05T03:03:30;101171.80;;;14.43;65.04
34073;BME280;20346;52.702;16.886;2022-07-05T03:05:56;101174.44;;;14.40;64.79
34073;BME280;20346;52.702;16.886;2022-07-05T03:08:22;101173.95;;;14.43;64.90
34073;BME280;20346;52.702;16.886;2022-07-05T03:10:48;101165.19;;;14.47;64.95
34073;BME280;20346;52.702;16.886;2022-07-05T03:13:14;101165.63;;;14.47;64.90
34073;BME280;20346;52.702;16.886;2022-07-05T03:15:40;101164.77;;;14.46;65.00
34073;BME280;20346;52.702;16.886;2022-07-05T03:18:07;101164.30;;;14.48;65.07
34073;BME280;20346;52.702;16.886;2022-07-05T03:20:33;101172.30;;;14.57;65.16
34073;BME280;20346;52.702;16.886;2022-07-05T03:23:00;101178.70;;;14.62;65.59
34073;BME280;20346;52.702;16.886;2022-07-05T03:25:26;101179.89;;;14.66;65.18
34073;BME280;20346;52.702;16.886;2022-07-05T03:27:52;101182.83;;;14.70;65.21
34073;BME280;20346;52.702;16.886;2022-07-05T03:30:18;101179.75;;;14.72;65.26
34073;BME280;20346;52.702;16.886;2022-07-05T03:32:44;101186.55;;;14.78;65.36
34073;BME280;20346;52.702;16.886;2022-07-05T03:35:11;101184.28;;;14.82;65.35
34073;BME280;20346;52.702;16.886;2022-07-05T03:37:37;101188.56;;;14.84;65.37
34073;BME280;20346;52.702;16.886;2022-07-05T03:40:04;101187.27;;;14.84;65.40
34073;BME280;20346;52.702;16.886;2022-07-05T03:42:31;101191.20;;;14.83;65.48
34073;BME280;20346;52.702;16.886;2022-07-05T03:44:57;101193.29;;;14.86;65.59
34073;BME280;20346;52.702;16.886;2022-07-05T03:47:23;101195.45;;;14.87;65.62
34073;BME280;20346;52.702;16.886;2022-07-05T03:49:49;101188.83;;;14.92;65.72
34073;BME280;20346;52.702;16.886;2022-07-05T03:52:15;101188.23;;;14.98;65.77
34073;BME280;20346;52.702;16.886;2022-07-05T03:54:43;101186.73;;;15.06;65.80
34073;BME280;20346;52.702;16.886;2022-07-05T03:57:10;101182.64;;;15.12;65.82
34073;BME280;20346;52.702;16.886;2022-07-05T03:59:37;101182.52;;;15.16;66.32
34073;BME280;20346;52.702;16.886;2022-07-05T04:02:11;101191.48;;;15.22;65.95
34073;BME280;20346;52.702;16.886;2022-07-05T04:04:37;101186.12;;;15.29;66.00
34073;BME280;20346;52.702;16.886;2022-07-05T04:07:04;101185.47;;;15.37;66.03
34073;BME280;20346;52.702;16.886;2022-07-05T04:09:33;101185.34;;;15.41;66.04
34073;BME280;20346;52.702;16.886;2022-07-05T04:11:59;101185.18;;;15.47;66.08
34073;BME280;20346;52.702;16.886;2022-07-05T04:14:26;101179.77;;;15.55;66.13
34073;BME280;20346;52.702;16.886;2022-07-05T04:16:51;101187.38;;;15.63;66.20
34073;BME280;20346;52.702;16.886;2022-07-05T04:19:17;101179.42;;;15.67;66.16
34073;BME280;20346;52.702;16.886;2022-07-05T04:21:44;101179.42;;;15.67;66.16
34073;BME280;20346;52.702;16.886;2022-07-05T04:24:09;101195.36;;;15.87;66.36
34073;BME280;20346;52.702;16.886;2022-07-05T04:26:36;101199.42;;;15.98;66.43
34073;BME280;20346;52.702;16.886;2022-07-05T04:29:03;101206.48;;;16.09;66.42
34073;BME280;20346;52.702;16.886;2022-07-05T04:31:29;101206.64;;;16.17;66.47
34073;BME280;20346;52.702;16.886;2022-07-05T04:33:56;101208.52;;;16.27;66.52
34073;BME280;20346;52.702;16.886;2022-07-05T04:36:22;101210.86;;;16.36;66.52
34073;BME280;20346;52.702;16.886;2022-07-05T04:38:48;101207.52;;;16.46;66.61
34073;BME280;20346;52.702;16.886;2022-07-05T04:41:14;101212.81;;;16.58;66.70
34073;BME280;20346;52.702;16.886;2022-07-05T04:43:40;101211.22;;;16.67;66.75
34073;BME280;20346;52.702;16.886;2022-07-05T04:46:06;101208.72;;;16.77;66.78
34073;BME280;20346;52.702;16.886;2022-07-05T04:48:32;101210.09;;;16.88;66.83
34073;BME280;20346;52.702;16.886;2022-07-05T04:50:58;101219.69;;;17.01;66.86
34073;BME280;20346;52.702;16.886;2022-07-05T04:53:24;101224.91;;;17.14;66.89
34073;BME280;20346;52.702;16.886;2022-07-05T04:55:50;101222.26;;;17.28;66.93
34073;BME280;20346;52.702;16.886;2022-07-05T04:58:16;101220.08;;;17.40;66.92
34073;BME280;20346;52.702;16.886;2022-07-05T05:00:42;101224.03;;;17.52;67.04
34073;BME280;20346;52.702;16.886;2022-07-05T05:03:20;101226.22;;;17.64;67.09
34073;BME280;20346;52.702;16.886;2022-07-05T05:05:47;101233.41;;;17.82;67.10
34073;BME280;20346;52.702;16.886;2022-07-05T05:08:13;101229.73;;;18.00;67.19
34073;BME280;20346;52.702;16.886;2022-07-05T05:10:39;101231.34;;;18.26;67.29
34073;BME280;20346;52.702;16.886;2022-07-05T05:13:05;101233.50;;;18.61;67.33
34073;BME280;20346;52.702;16.886;2022-07-05T05:15:31;101240.06;;;19.03;67.29
34073;BME280;20346;52.702;16.886;2022-07-05T05:18:04;101237.33;;;19.47;67.28
34073;BME280;20346;52.702;16.886;2022-07-05T05:20:31;101235.18;;;19.96;67.26
34073;BME280;20346;52.702;16.886;2022-07-05T05:22:57;101215.47;;;20.71;67.16
34073;BME280;20346;52.702;16.886;2022-07-05T05:25:23;101215.47;;;20.71;67.16
34073;BME280;20346;52.702;16.886;2022-07-05T05:27:49;101233.47;;;21.23;66.90
34073;BME280;20346;52.702;16.886;2022-07-05T05:30:21;101232.09;;;21.66;66.90
34073;BME280;20346;52.702;16.886;2022-07-05T05:32:48;101230.69;;;22.25;66.86
34073;BME280;20346;52.702;16.886;2022-07-05T05:35:14;101233.67;;;22.73;66.61
34073;BME280;20346;52.702;16.886;2022-07-05T05:37:50;101237.25;;;23.18;66.44
34073;BME280;20346;52.702;16.886;2022-07-05T05:40:18;101238.84;;;23.58;66.21
34073;BME280;20346;52.702;16.886;2022-07-05T05:42:45;101228.96;;;23.83;65.97
34073;BME280;20346;52.702;16.886;2022-07-05T05:45:11;101236.28;;;24.06;65.90
34073;BME280;20346;52.702;16.886;2022-07-05T05:47:52;101236.66;;;24.35;65.75
34073;BME280;20346;52.702;16.886;2022-07-05T05:50:21;101239.20;;;24.64;65.58
34073;BME280;20346;52.702;16.886;2022-07-05T05:52:50;101239.20;;;24.91;65.30
34073;BME280;20346;52.702;16.886;2022-07-05T05:55:17;101235.23;;;25.11;65.02
34073;BME280;20346;52.702;16.886;2022-07-05T05:57:44;101241.48;;;25.42;65.00
34073;BME280;20346;52.702;16.886;2022-07-05T06:00:11;101239.91;;;25.78;64.80
34073;BME280;20346;52.702;16.886;2022-07-05T06:02:38;101246.80;;;26.11;64.47
34073;BME280;20346;52.702;16.886;2022-07-05T06:05:07;101248.02;;;26.44;64.01
34073;BME280;20346;52.702;16.886;2022-07-05T06:07:55;101250.92;;;26.70;63.83
34073;BME280;20346;52.702;16.886;2022-07-05T06:10:30;101254.23;;;26.97;63.66
34073;BME280;20346;52.702;16.886;2022-07-05T06:12:59;101258.78;;;27.30;63.29
34073;BME280;20346;52.702;16.886;2022-07-05T06:15:27;101254.64;;;27.67;62.97
34073;BME280;20346;52.702;16.886;2022-07-05T06:17:56;101256.95;;;28.05;62.48
34073;BME280;20346;52.702;16.886;2022-07-05T06:20:24;101256.81;;;28.34;62.18
34073;BME280;20346;52.702;16.886;2022-07-05T06:22:52;101257.78;;;28.77;61.83
34073;BME280;20346;52.702;16.886;2022-07-05T06:25:33;101258.94;;;29.01;61.18
34073;BME280;20346;52.702;16.886;2022-07-05T06:28:02;101258.78;;;29.08;60.76
34073;BME280;20346;52.702;16.886;2022-07-05T06:30:32;101257.98;;;29.17;60.22
34073;BME280;20346;52.702;16.886;2022-07-05T06:33:01;101267.27;;;29.22;59.50
34073;BME280;20346;52.702;16.886;2022-07-05T06:35:27;101264.73;;;29.21;58.95
34073;BME280;20346;52.702;16.886;2022-07-05T06:38:03;101265.00;;;28.97;58.17
34073;BME280;20346;52.702;16.886;2022-07-05T06:40:33;101268.78;;;28.78;58.31
34073;BME280;20346;52.702;16.886;2022-07-05T06:43:09;101263.26;;;28.64;58.41
34073;BME280;20346;52.702;16.886;2022-07-05T06:45:36;101266.94;;;28.57;57.93
34073;BME280;20346;52.702;16.886;2022-07-05T06:48:08;101272.38;;;28.56;57.65
34073;BME280;20346;52.702;16.886;2022-07-05T06:50:47;101267.37;;;28.62;57.37
34073;BME280;20346;52.702;16.886;2022-07-05T06:53:13;101263.60;;;28.82;56.89
34073;BME280;20346;52.702;16.886;2022-07-05T06:55:39;101260.91;;;29.14;56.44
34073;BME280;20346;52.702;16.886;2022-07-05T06:58:08;101259.29;;;29.49;56.06
34073;BME280;20346;52.702;16.886;2022-07-05T07:00:34;101265.78;;;29.86;55.39
34073;BME280;20346;52.702;16.886;2022-07-05T07:03:00;101264.08;;;30.16;55.05
34073;BME280;20346;52.702;16.886;2022-07-05T07:05:27;101259.10;;;30.57;54.73
34073;BME280;20346;52.702;16.886;2022-07-05T07:07:59;101258.55;;;30.92;54.03
34073;BME280;20346;52.702;16.886;2022-07-05T07:10:44;101254.03;;;31.21;53.58
34073;BME280;20346;52.702;16.886;2022-07-05T07:13:16;101266.02;;;31.50;53.04
34073;BME280;20346;52.702;16.886;2022-07-05T07:15:42;101264.17;;;31.60;52.04
34073;BME280;20346;52.702;16.886;2022-07-05T07:18:08;101264.08;;;31.89;52.30
34073;BME280;20346;52.702;16.886;2022-07-05T07:20:36;101260.81;;;31.96;51.46
34073;BME280;20346;52.702;16.886;2022-07-05T07:23:02;101256.35;;;31.63;49.64
34073;BME280;20346;52.702;16.886;2022-07-05T07:25:28;101259.59;;;31.24;50.03
34073;BME280;20346;52.702;16.886;2022-07-05T07:27:55;101244.05;;;31.23;50.05
34073;BME280;20346;52.702;16.886;2022-07-05T07:30:24;101259.20;;;31.42;49.23
34073;BME280;20346;52.702;16.886;2022-07-05T07:32:52;101262.99;;;31.49;48.43
34073;BME280;20346;52.702;16.886;2022-07-05T07:35:32;101252.42;;;31.57;48.55
34073;BME280;20346;52.702;16.886;2022-07-05T07:37:58;101254.22;;;31.90;48.20
34073;BME280;20346;52.702;16.886;2022-07-05T07:40:24;101252.41;;;32.18;47.82
34073;BME280;20346;52.702;16.886;2022-07-05T07:42:52;101253.92;;;32.48;47.31
34073;BME280;20346;52.702;16.886;2022-07-05T07:45:18;101246.14;;;32.72;46.80
34073;BME280;20346;52.702;16.886;2022-07-05T07:47:45;101246.17;;;32.94;46.13
34073;BME280;20346;52.702;16.886;2022-07-05T07:50:11;101232.56;;;33.09;45.62
34073;BME280;20346;52.702;16.886;2022-07-05T07:52:37;101238.38;;;33.22;45.20
34073;BME280;20346;52.702;16.886;2022-07-05T07:55:04;101233.80;;;33.41;44.84
34073;BME280;20346;52.702;16.886;2022-07-05T07:57:32;101234.89;;;33.52;44.27
34073;BME280;20346;52.702;16.886;2022-07-05T07:59:58;101231.66;;;33.74;43.71
34073;BME280;20346;52.702;16.886;2022-07-05T08:02:24;101229.09;;;33.99;43.02
34073;BME280;20346;52.702;16.886;2022-07-05T08:04:50;101233.89;;;34.25;42.72
34073;BME280;20346;52.702;16.886;2022-07-05T08:07:17;101223.72;;;34.53;42.33
34073;BME280;20346;52.702;16.886;2022-07-05T08:09:44;101221.88;;;34.62;41.74
34073;BME280;20346;52.702;16.886;2022-07-05T08:12:10;101229.47;;;34.08;41.21
34073;BME280;20346;52.702;16.886;2022-07-05T08:14:36;101226.70;;;33.32;41.06
34073;BME280;20346;52.702;16.886;2022-07-05T08:17:03;101226.39;;;32.55;41.32
34073;BME280;20346;52.702;16.886;2022-07-05T08:19:31;101227.06;;;31.85;41.04
34073;BME280;20346;52.702;16.886;2022-07-05T08:22:17;101233.30;;;31.10;40.77
34073;BME280;20346;52.702;16.886;2022-07-05T08:24:45;101227.30;;;30.44;40.61
34073;BME280;20346;52.702;16.886;2022-07-05T08:27:14;101238.44;;;30.00;40.32
34073;BME280;20346;52.702;16.886;2022-07-05T08:29:42;101237.43;;;29.85;40.17
34073;BME280;20346;52.702;16.886;2022-07-05T08:32:09;101231.05;;;29.52;39.92
34073;BME280;20346;52.702;16.886;2022-07-05T08:34:38;101229.61;;;29.06;39.51
34073;BME280;20346;52.702;16.886;2022-07-05T08:37:05;101237.34;;;28.83;39.45
34073;BME280;20346;52.702;16.886;2022-07-05T08:39:32;101232.45;;;29.14;39.12
34073;BME280;20346;52.702;16.886;2022-07-05T08:41:59;101232.28;;;29.48;39.19
34073;BME280;20346;52.702;16.886;2022-07-05T08:44:28;101233.61;;;29.78;38.74
34073;BME280;20346;52.702;16.886;2022-07-05T08:46:57;101232.72;;;29.98;38.09
34073;BME280;20346;52.702;16.886;2022-07-05T08:49:27;101230.25;;;30.07;38.00
34073;BME280;20346;52.702;16.886;2022-07-05T08:51:55;101234.54;;;29.83;37.96
34073;BME280;20346;52.702;16.886;2022-07-05T08:54:23;101229.00;;;29.50;37.85
34073;BME280;20346;52.702;16.886;2022-07-05T08:56:50;101232.39;;;29.25;37.68
34073;BME280;20346;52.702;16.886;2022-07-05T08:59:16;101230.17;;;28.89;37.44
34073;BME280;20346;52.702;16.886;2022-07-05T09:01:47;101234.17;;;28.51;37.60
34073;BME280;20346;52.702;16.886;2022-07-05T09:04:16;101232.64;;;28.26;37.61
34073;BME280;20346;52.702;16.886;2022-07-05T09:06:45;101232.87;;;28.18;37.67
34073;BME280;20346;52.702;16.886;2022-07-05T09:09:13;101231.53;;;28.18;37.60
34073;BME280;20346;52.702;16.886;2022-07-05T09:11:44;101235.91;;;28.24;37.51
34073;BME280;20346;52.702;16.886;2022-07-05T09:14:23;101229.63;;;28.25;37.36
34073;BME280;20346;52.702;16.886;2022-07-05T09:16:51;101224.77;;;28.19;37.25
34073;BME280;20346;52.702;16.886;2022-07-05T09:19:17;101219.02;;;28.03;36.70
34073;BME280;20346;52.702;16.886;2022-07-05T09:21:43;101223.97;;;27.91;37.08
34073;BME280;20346;52.702;16.886;2022-07-05T09:24:11;101224.09;;;27.89;37.06
34073;BME280;20346;52.702;16.886;2022-07-05T09:26:45;101219.02;;;27.86;37.01
34073;BME280;20346;52.702;16.886;2022-07-05T09:29:17;101217.92;;;27.83;36.96
34073;BME280;20346;52.702;16.886;2022-07-05T09:31:48;101220.09;;;27.78;36.98
34073;BME280;20346;52.702;16.886;2022-07-05T09:34:17;101221.30;;;27.68;36.89
34073;BME280;20346;52.702;16.886;2022-07-05T09:37:01;101220.69;;;27.59;36.69
34073;BME280;20346;52.702;16.886;2022-07-05T09:39:35;101217.17;;;27.48;36.59
34073;BME280;20346;52.702;16.886;2022-07-05T09:42:18;101219.09;;;27.46;36.76
34073;BME280;20346;52.702;16.886;2022-07-05T09:44:56;101217.78;;;27.51;36.58
34073;BME280;20346;52.702;16.886;2022-07-05T09:47:24;101218.61;;;27.46;36.60
34073;BME280;20346;52.702;16.886;2022-07-05T09:49:57;101219.94;;;27.41;36.51
34073;BME280;20346;52.702;16.886;2022-07-05T09:55:16;101210.37;;;27.27;36.54
34073;BME280;20346;52.702;16.886;2022-07-05T09:57:45;101211.31;;;27.20;36.42
34073;BME280;20346;52.702;16.886;2022-07-05T10:00:20;101207.78;;;27.09;36.54
34073;BME280;20346;52.702;16.886;2022-07-05T10:02:51;101216.94;;;27.04;36.54
34073;BME280;20346;52.702;16.886;2022-07-05T10:05:23;101212.48;;;27.05;36.50
34073;BME280;20346;52.702;16.886;2022-07-05T10:07:56;101213.56;;;26.97;36.29
34073;BME280;20346;52.702;16.886;2022-07-05T10:10:28;101209.63;;;26.84;36.32
34073;BME280;20346;52.702;16.886;2022-07-05T10:12:57;101212.93;;;26.69;36.30
34073;BME280;20346;52.702;16.886;2022-07-05T10:15:27;101208.89;;;26.58;36.37
34073;BME280;20346;52.702;16.886;2022-07-05T10:18:04;101211.18;;;26.57;36.31
34073;BME280;20346;52.702;16.886;2022-07-05T10:23:11;101208.95;;;26.69;36.40
34073;BME280;20346;52.702;16.886;2022-07-05T10:25:40;101206.09;;;26.78;36.37
34073;BME280;20346;52.702;16.886;2022-07-05T10:28:09;101209.25;;;26.83;36.41
34073;BME280;20346;52.702;16.886;2022-07-05T10:30:36;101214.70;;;26.87;36.28
34073;BME280;20346;52.702;16.886;2022-07-05T10:33:04;101213.48;;;26.86;36.32
34073;BME280;20346;52.702;16.886;2022-07-05T10:35:32;101208.43;;;26.88;36.41
34073;BME280;20346;52.702;16.886;2022-07-05T10:37:59;101212.66;;;26.91;36.43
34073;BME280;20346;52.702;16.886;2022-07-05T10:40:28;101205.78;;;26.88;36.45
34073;BME280;20346;52.702;16.886;2022-07-05T10:42:59;101206.37;;;26.86;36.48
34073;BME280;20346;52.702;16.886;2022-07-05T10:45:32;101205.52;;;26.86;36.46
34073;BME280;20346;52.702;16.886;2022-07-05T10:48:13;101200.70;;;26.85;36.46
34073;BME280;20346;52.702;16.886;2022-07-05T10:51:00;101199.12;;;26.83;36.53
34073;BME280;20346;52.702;16.886;2022-07-05T10:58:41;101202.23;;;27.00;36.62
34073;BME280;20346;52.702;16.886;2022-07-05T11:06:44;101188.59;;;26.99;36.42
34073;BME280;20346;52.702;16.886;2022-07-05T11:09:14;101184.84;;;26.96;36.34
34073;BME280;20346;52.702;16.886;2022-07-05T11:11:45;101177.80;;;26.90;36.44
34073;BME280;20346;52.702;16.886;2022-07-05T11:17:13;101179.22;;;26.83;36.37
34073;BME280;20346;52.702;16.886;2022-07-05T11:20:05;101171.98;;;26.85;36.34
34073;BME280;20346;52.702;16.886;2022-07-05T11:25:10;101178.69;;;26.96;36.27
34073;BME280;20346;52.702;16.886;2022-07-05T11:27:58;101176.41;;;26.97;36.23
34073;BME280;20346;52.702;16.886;2022-07-05T11:30:24;101176.88;;;26.96;36.10
34073;BME280;20346;52.702;16.886;2022-07-05T11:32:51;101166.83;;;26.94;36.11
34073;BME280;20346;52.702;16.886;2022-07-05T11:35:19;101170.73;;;26.96;36.11
34073;BME280;20346;52.702;16.886;2022-07-05T11:38:03;101169.28;;;26.97;36.07
34073;BME280;20346;52.702;16.886;2022-07-05T11:40:35;101168.44;;;26.97;35.91
34073;BME280;20346;52.702;16.886;2022-07-05T11:43:03;101157.41;;;26.90;35.98
34073;BME280;20346;52.702;16.886;2022-07-05T11:45:32;101161.02;;;26.89;35.94
34073;BME280;20346;52.702;16.886;2022-07-05T11:47:58;101157.88;;;26.84;35.94
34073;BME280;20346;52.702;16.886;2022-07-05T11:50:30;101157.50;;;26.83;35.98
34073;BME280;20346;52.702;16.886;2022-07-05T11:53:04;101158.47;;;26.82;35.91
34073;BME280;20346;52.702;16.886;2022-07-05T11:55:30;101155.45;;;26.81;35.98
34073;BME280;20346;52.702;16.886;2022-07-05T11:57:57;101156.77;;;26.81;35.98
34073;BME280;20346;52.702;16.886;2022-07-05T12:00:31;101155.17;;;26.73;35.93
34073;BME280;20346;52.702;16.886;2022-07-05T12:03:09;101155.04;;;26.69;36.03
34073;BME280;20346;52.702;16.886;2022-07-05T12:05:38;101152.14;;;26.66;36.03
34073;BME280;20346;52.702;16.886;2022-07-05T12:08:06;101153.80;;;26.62;36.07
34073;BME280;20346;52.702;16.886;2022-07-05T12:10:32;101147.88;;;26.58;36.01
34073;BME280;20346;52.702;16.886;2022-07-05T12:13:20;101147.27;;;26.55;36.10
34073;BME280;20346;52.702;16.886;2022-07-05T12:15:46;101146.31;;;26.50;36.15
34073;BME280;20346;52.702;16.886;2022-07-05T12:18:12;101142.98;;;26.35;36.10
34073;BME280;20346;52.702;16.886;2022-07-05T12:20:40;101140.08;;;26.33;36.21
34073;BME280;20346;52.702;16.886;2022-07-05T12:23:06;101133.33;;;26.34;36.24
34073;BME280;20346;52.702;16.886;2022-07-05T12:25:33;101137.94;;;26.38;36.29
34073;BME280;20346;52.702;16.886;2022-07-05T12:28:01;101132.66;;;26.44;36.37
34073;BME280;20346;52.702;16.886;2022-07-05T12:30:31;101132.68;;;26.49;36.37
34073;BME280;20346;52.702;16.886;2022-07-05T12:33:04;101130.41;;;26.61;36.44
34073;BME280;20346;52.702;16.886;2022-07-05T12:35:36;101128.05;;;26.75;36.39
34073;BME280;20346;52.702;16.886;2022-07-05T12:38:15;101123.47;;;26.77;36.37
34073;BME280;20346;52.702;16.886;2022-07-05T12:40:56;101129.28;;;26.82;36.37
34073;BME280;20346;52.702;16.886;2022-07-05T12:43:24;101122.03;;;26.79;36.39
34073;BME280;20346;52.702;16.886;2022-07-05T12:46:03;101118.41;;;26.80;36.50
34073;BME280;20346;52.702;16.886;2022-07-05T12:48:39;101117.95;;;26.86;36.48
34073;BME280;20346;52.702;16.886;2022-07-05T12:51:05;101121.83;;;26.93;36.50
34073;BME280;20346;52.702;16.886;2022-07-05T12:53:32;101126.52;;;26.89;36.40
34073;BME280;20346;52.702;16.886;2022-07-05T12:56:22;101120.35;;;26.83;36.42
34073;BME280;20346;52.702;16.886;2022-07-05T12:59:09;101126.88;;;26.85;36.49
34073;BME280;20346;52.702;16.886;2022-07-05T13:01:43;101123.73;;;26.85;36.46
34073;BME280;20346;52.702;16.886;2022-07-05T13:04:15;101127.35;;;26.84;36.44
34073;BME280;20346;52.702;16.886;2022-07-05T13:09:37;101123.75;;;26.91;36.37
34073;BME280;20346;52.702;16.886;2022-07-05T13:12:19;101119.58;;;26.99;36.38
34073;BME280;20346;52.702;16.886;2022-07-05T13:17:18;101116.33;;;27.01;36.24